createdAt,value
2022-12-09T00:01:14.136Z,18.55
2022-12-09T00:03:41.947Z,17.55
2022-12-09T00:06:11.892Z,16.85
2022-12-09T00:08:38.718Z,16.85
2022-12-09T00:11:06.646Z,16.85
2022-12-09T00:13:34.033Z,16.83
2022-12-09T00:16:05.200Z,15.55
2022-12-09T00:18:32.879Z,15.07
2022-12-09T00:20:59.741Z,15.70
2022-12-09T00:23:26.641Z,15.65
2022-12-09T00:25:57.333Z,18.23
2022-12-09T00:28:24.027Z,16.55
2022-12-09T00:30:50.825Z,17.83
2022-12-09T00:33:17.840Z,15.98
2022-12-09T00:35:44.549Z,16.77
2022-12-09T00:38:11.181Z,17.15
2022-12-09T00:40:37.973Z,17.00
2022-12-09T00:43:04.694Z,16.52
2022-12-09T00:45:31.334Z,15.02
2022-12-09T00:47:58.019Z,16.52
2022-12-09T00:50:24.662Z,15.80
2022-12-09T00:52:51.289Z,16.08
2022-12-09T00:55:18.147Z,14.60
2022-12-09T00:57:45.089Z,15.90
2022-12-09T01:00:12.450Z,14.35
2022-12-09T01:02:39.374Z,15.65
2022-12-09T01:05:06.629Z,14.98
2022-12-09T01:07:33.527Z,14.13
2022-12-09T01:10:00.479Z,14.95
2022-12-09T01:12:27.256Z,13.85
2022-12-09T01:14:54.096Z,14.13
2022-12-09T01:17:21.126Z,15.35
2022-12-09T01:19:47.878Z,13.82
2022-12-09T01:22:14.538Z,14.27
2022-12-09T01:24:41.198Z,14.00
2022-12-09T01:27:08.209Z,14.00
2022-12-09T01:29:35.605Z,14.20
2022-12-09T01:32:02.752Z,14.55
2022-12-09T01:34:29.502Z,14.23
2022-12-09T01:36:56.290Z,13.95
2022-12-09T01:39:23.299Z,13.32
2022-12-09T01:41:51.461Z,13.63
2022-12-09T01:44:24.260Z,13.60
2022-12-09T01:46:55.870Z,14.77
2022-12-09T01:49:27.716Z,13.93
2022-12-09T01:52:03.933Z,15.35
2022-12-09T01:54:32.049Z,15.23
2022-12-09T01:56:59.149Z,15.20
2022-12-09T01:59:27.734Z,15.02
2022-12-09T02:01:59.268Z,16.10
2022-12-09T02:04:29.007Z,14.70
2022-12-09T02:06:58.531Z,16.27
2022-12-09T02:09:25.624Z,16.13
2022-12-09T02:12:03.520Z,15.93
2022-12-09T02:14:54.901Z,16.10
2022-12-09T02:17:32.451Z,15.57
2022-12-09T02:20:13.170Z,15.85
2022-12-09T02:22:58.327Z,15.50
2022-12-09T02:25:33.790Z,15.10
2022-12-09T02:28:12.927Z,15.57
2022-12-09T02:31:02.992Z,16.17
2022-12-09T02:33:45.651Z,14.32
2022-12-09T02:36:16.822Z,14.32
2022-12-09T02:38:44.416Z,14.75
2022-12-09T02:41:25.733Z,15.68
2022-12-09T02:43:59.110Z,13.52
2022-12-09T02:46:27.895Z,15.40
2022-12-09T02:48:57.220Z,14.25
2022-12-09T02:51:31.661Z,14.93
2022-12-09T02:54:04.666Z,14.55
2022-12-09T02:56:33.069Z,14.27
2022-12-09T02:58:59.744Z,14.30
2022-12-09T03:01:49.530Z,13.77
2022-12-09T03:04:26.321Z,14.82
2022-12-09T03:09:27.412Z,13.45
2022-12-09T03:11:56.591Z,14.30
2022-12-09T03:14:30.161Z,14.20
2022-12-09T03:17:08.104Z,14.40
2022-12-09T03:19:42.485Z,14.30
2022-12-09T03:22:14.303Z,14.27
2022-12-09T03:24:48.604Z,14.63
2022-12-09T03:27:20.860Z,14.82
2022-12-09T03:29:49.859Z,14.13
2022-12-09T03:32:19.823Z,14.55
2022-12-09T03:34:50.365Z,13.90
2022-12-09T03:37:20.176Z,15.40
2022-12-09T03:39:49.560Z,15.05
2022-12-09T03:42:21.385Z,15.18
2022-12-09T03:45:06.860Z,14.40
2022-12-09T03:47:33.734Z,15.65
2022-12-09T03:50:00.844Z,14.85
2022-12-09T03:52:37.388Z,15.55
2022-12-09T03:55:23.938Z,16.10
2022-12-09T03:57:55.174Z,14.80
2022-12-09T04:00:21.944Z,14.95
2022-12-09T04:02:49.020Z,15.68
2022-12-09T04:05:16.210Z,15.27
2022-12-09T04:07:43.433Z,15.82
2022-12-09T04:10:11.352Z,15.90
2022-12-09T04:12:40.266Z,15.40
2022-12-09T04:15:07.564Z,15.45
2022-12-09T04:17:34.324Z,16.10
2022-12-09T04:20:01.567Z,14.90
2022-12-09T04:22:30.044Z,14.52
2022-12-09T04:24:56.798Z,14.13
2022-12-09T04:27:23.453Z,13.73
2022-12-09T04:29:50.190Z,13.93
2022-12-09T04:32:16.903Z,14.18
2022-12-09T04:34:43.589Z,13.25
2022-12-09T04:37:10.598Z,12.30
2022-12-09T04:39:37.420Z,13.40
2022-12-09T04:42:04.131Z,14.80
2022-12-09T04:44:31.026Z,13.55
2022-12-09T04:46:57.803Z,13.73
2022-12-09T04:49:25.014Z,13.07
2022-12-09T04:51:51.677Z,13.63
2022-12-09T04:54:18.546Z,13.15
2022-12-09T04:56:45.587Z,13.57
2022-12-09T04:59:12.248Z,13.70
2022-12-09T05:01:39.270Z,13.73
2022-12-09T05:04:06.462Z,13.02
2022-12-09T05:06:33.731Z,12.75
2022-12-09T05:09:01.303Z,14.60
2022-12-09T05:11:28.275Z,13.40
2022-12-09T05:13:55.392Z,13.98
2022-12-09T05:16:22.764Z,14.07
2022-12-09T05:18:50.167Z,13.48
2022-12-09T05:21:20.342Z,14.18
2022-12-09T05:23:48.700Z,13.52
2022-12-09T05:26:17.942Z,13.02
2022-12-09T05:28:45.594Z,11.90
2022-12-09T05:31:15.615Z,10.63
2022-12-09T05:33:44.102Z,11.00
2022-12-09T05:36:12.483Z,11.27
2022-12-09T05:38:39.924Z,9.95
2022-12-09T05:41:07.285Z,10.13
2022-12-09T05:43:35.100Z,10.32
2022-12-09T05:46:02.902Z,10.82
2022-12-09T05:48:30.316Z,10.35
2022-12-09T05:51:00.629Z,9.82
2022-12-09T05:53:27.797Z,10.07
2022-12-09T05:55:54.946Z,11.07
2022-12-09T05:58:22.270Z,9.20
2022-12-09T06:00:49.663Z,9.70
2022-12-09T06:03:17.022Z,9.93
2022-12-09T06:05:44.275Z,10.15
2022-12-09T06:08:11.365Z,10.10
2022-12-09T06:10:41.313Z,10.00
2022-12-09T06:13:08.790Z,9.32
2022-12-09T06:15:36.027Z,9.63
2022-12-09T06:18:05.997Z,9.43
2022-12-09T06:21:05.526Z,8.95
2022-12-09T06:23:37.919Z,9.73
2022-12-09T06:26:19.744Z,10.07
2022-12-09T06:28:47.111Z,9.80
2022-12-09T06:31:43.634Z,9.68
2022-12-09T06:34:18.778Z,14.60
2022-12-09T06:36:45.752Z,13.43
2022-12-09T06:39:12.641Z,20.40
2022-12-09T06:41:50.365Z,14.80
2022-12-09T06:44:23.583Z,10.10
2022-12-09T06:46:51.387Z,12.95
2022-12-09T06:49:41.162Z,10.73
2022-12-09T06:55:13.734Z,10.98
2022-12-09T06:57:41.323Z,10.13
2022-12-09T07:00:09.116Z,10.50
2022-12-09T07:02:37.332Z,10.60
2022-12-09T07:05:11.468Z,10.38
2022-12-09T07:07:45.135Z,10.65
2022-12-09T07:10:12.980Z,9.90
2022-12-09T07:12:40.156Z,10.35
2022-12-09T07:15:07.648Z,10.40
2022-12-09T07:17:37.031Z,14.68
2022-12-09T07:20:08.586Z,14.35
2022-12-09T07:22:42.629Z,12.02
2022-12-09T07:25:11.465Z,11.17
2022-12-09T07:27:44.771Z,10.98
2022-12-09T07:30:17.108Z,10.65
2022-12-09T07:32:44.410Z,11.38
2022-12-09T07:35:20.975Z,11.25
2022-12-09T07:38:08.062Z,10.40
2022-12-09T07:40:43.044Z,12.85
2022-12-09T07:43:19.851Z,11.60
2022-12-09T07:45:46.647Z,11.30
2022-12-09T07:48:13.655Z,12.55
2022-12-09T07:50:40.753Z,11.85
2022-12-09T07:53:07.501Z,10.75
2022-12-09T07:55:34.758Z,10.77
2022-12-09T07:58:01.768Z,10.30
2022-12-09T08:00:28.774Z,9.55
2022-12-09T08:02:55.591Z,10.02
2022-12-09T08:05:22.818Z,9.60
2022-12-09T08:07:49.667Z,9.18
2022-12-09T08:10:17.257Z,9.43
2022-12-09T08:12:45.568Z,9.35
2022-12-09T08:15:13.166Z,8.95
2022-12-09T08:17:40.517Z,8.57
2022-12-09T08:20:08.428Z,9.50
2022-12-09T08:22:35.653Z,10.00
2022-12-09T08:25:02.809Z,9.10
2022-12-09T08:27:30.252Z,10.18
2022-12-09T08:29:57.070Z,10.35
2022-12-09T08:32:24.113Z,9.80
2022-12-09T08:34:51.035Z,11.02
2022-12-09T08:37:18.170Z,10.57
2022-12-09T08:39:44.937Z,10.10
2022-12-09T08:42:12.163Z,9.85
2022-12-09T08:44:40.047Z,10.50
2022-12-09T08:47:06.838Z,11.32
2022-12-09T08:49:33.980Z,12.02
2022-12-09T08:52:01.184Z,13.35
2022-12-09T08:54:28.790Z,13.82
2022-12-09T08:56:56.430Z,12.93
2022-12-09T08:59:24.514Z,28.95
2022-12-09T09:01:52.582Z,31.15
2022-12-09T09:04:21.850Z,33.65
2022-12-09T09:06:50.702Z,18.58
2022-12-09T09:09:20.394Z,15.68
2022-12-09T09:11:47.406Z,12.30
2022-12-09T09:14:15.042Z,11.18
2022-12-09T09:16:44.275Z,11.68
2022-12-09T09:19:17.578Z,10.85
2022-12-09T09:21:45.037Z,10.52
2022-12-09T09:24:14.940Z,10.75
2022-12-09T09:26:43.504Z,10.52
2022-12-09T09:29:13.026Z,11.10
2022-12-09T09:31:40.981Z,12.05
2022-12-09T09:34:08.506Z,13.13
2022-12-09T09:36:35.612Z,11.15
2022-12-09T09:39:03.077Z,11.85
2022-12-09T09:41:59.602Z,12.60
2022-12-09T09:44:44.040Z,12.05
2022-12-09T09:47:17.934Z,10.95
2022-12-09T09:49:46.198Z,11.23
2022-12-09T09:52:26.041Z,12.48
2022-12-09T09:55:02.091Z,13.23
2022-12-09T09:57:51.857Z,13.00
2022-12-09T10:00:27.127Z,13.13
2022-12-09T10:03:07.014Z,12.23
2022-12-09T10:05:53.016Z,12.45
2022-12-09T10:08:40.069Z,12.15
2022-12-09T10:11:25.904Z,13.85
2022-12-09T10:14:20.285Z,12.80
2022-12-09T10:17:04.762Z,11.63
2022-12-09T10:19:37.763Z,11.80
2022-12-09T10:22:34.514Z,11.02
2022-12-09T10:25:14.941Z,10.77
2022-12-09T10:27:50.586Z,11.55
2022-12-09T10:30:19.882Z,12.60
2022-12-09T10:32:47.596Z,12.25
2022-12-09T10:35:18.035Z,11.93
2022-12-09T10:37:46.608Z,12.38
2022-12-09T10:40:30.301Z,11.63
2022-12-09T10:43:14.656Z,11.50
2022-12-09T10:48:57.973Z,12.02
2022-12-09T10:51:30.183Z,11.90
2022-12-09T10:54:07.003Z,12.02
2022-12-09T10:56:37.848Z,12.57
2022-12-09T10:59:23.244Z,12.90
2022-12-09T11:01:52.983Z,11.60
2022-12-09T11:04:23.056Z,12.60
2022-12-09T11:06:59.493Z,12.77
2022-12-09T11:09:32.630Z,11.48
2022-12-09T11:12:02.282Z,12.25
2022-12-09T11:14:45.426Z,12.45
2022-12-09T11:17:20.151Z,13.35
2022-12-09T11:19:52.627Z,11.45
2022-12-09T11:22:21.401Z,12.55
2022-12-09T11:24:49.963Z,11.80
2022-12-09T11:27:34.641Z,11.27
2022-12-09T11:30:12.476Z,10.65
2022-12-09T11:33:01.138Z,11.90
2022-12-09T11:35:33.240Z,12.00
2022-12-09T11:38:04.629Z,11.73
2022-12-09T11:40:32.738Z,12.55
2022-12-09T11:42:59.695Z,12.27
2022-12-09T11:45:32.149Z,11.32
2022-12-09T11:48:27.602Z,13.40
2022-12-09T11:50:56.017Z,13.45
2022-12-09T11:53:22.625Z,13.23
2022-12-09T11:55:59.669Z,13.27
2022-12-09T11:58:33.533Z,13.32
2022-12-09T12:01:05.372Z,12.63
2022-12-09T12:03:39.802Z,11.50
2022-12-09T12:06:18.305Z,11.70
2022-12-09T12:08:52.355Z,14.00
2022-12-09T12:11:25.557Z,12.60
2022-12-09T12:14:01.595Z,12.68
2022-12-09T12:16:51.566Z,12.07
2022-12-09T12:19:22.818Z,12.95
2022-12-09T12:22:19.966Z,12.70
2022-12-09T12:25:18.073Z,13.32
2022-12-09T12:28:00.544Z,12.48
2022-12-09T12:30:45.408Z,12.45
2022-12-09T12:34:00.561Z,13.70
2022-12-09T12:36:53.581Z,13.80
2022-12-09T12:39:51.915Z,14.27
2022-12-09T12:43:11.448Z,14.13
2022-12-09T12:46:05.066Z,14.88
2022-12-09T12:48:56.298Z,13.60
2022-12-09T12:51:29.078Z,14.57
2022-12-09T12:54:16.130Z,14.32
2022-12-09T12:56:54.206Z,14.55
2022-12-09T12:59:26.328Z,14.73
2022-12-09T13:02:00.983Z,14.70
2022-12-09T13:04:44.570Z,13.82
2022-12-09T13:07:36.882Z,14.77
2022-12-09T13:10:16.009Z,15.65
2022-12-09T13:13:01.164Z,14.15
2022-12-09T13:15:33.643Z,15.48
2022-12-09T13:18:19.462Z,16.45
2022-12-09T13:20:50.654Z,16.35
2022-12-09T13:23:42.304Z,16.02
2022-12-09T13:26:29.876Z,16.67
2022-12-09T13:29:38.017Z,16.90
2022-12-09T13:32:32.531Z,15.70
2022-12-09T13:35:13.104Z,16.77
2022-12-09T13:38:07.905Z,15.70
2022-12-09T13:40:38.853Z,16.38
2022-12-09T13:43:12.268Z,17.05
2022-12-09T13:46:04.173Z,17.33
2022-12-09T13:48:30.827Z,17.42
2022-12-09T13:53:58.447Z,18.55
2022-12-09T13:56:37.078Z,19.75
2022-12-09T13:59:46.251Z,19.83
2022-12-09T14:02:34.550Z,19.83
2022-12-09T14:05:21.071Z,18.75
2022-12-09T14:07:54.214Z,19.20
2022-12-09T14:10:53.422Z,20.50
2022-12-09T14:13:31.192Z,20.30
2022-12-09T14:16:10.269Z,20.70
2022-12-09T14:18:41.967Z,19.33
2022-12-09T14:21:19.895Z,20.00
2022-12-09T14:24:27.201Z,19.45
2022-12-09T14:27:20.746Z,20.38
2022-12-09T14:29:51.006Z,19.05
2022-12-09T14:32:37.894Z,19.45
2022-12-09T14:35:12.452Z,19.92
2022-12-09T14:38:01.476Z,19.35
2022-12-09T14:41:08.953Z,18.75
2022-12-09T14:44:03.601Z,18.95
2022-12-09T14:46:34.093Z,17.90
2022-12-09T14:49:17.861Z,18.98
2022-12-09T14:52:01.560Z,18.50
2022-12-09T14:54:37.444Z,17.20
2022-12-09T14:57:16.009Z,17.83
2022-12-09T14:59:50.295Z,18.27
2022-12-09T15:03:22.976Z,18.33
2022-12-09T15:05:38.595Z,18.30
2022-12-09T15:08:10.925Z,18.35
2022-12-09T15:10:46.089Z,18.75
2022-12-09T15:13:19.864Z,17.65
2022-12-09T15:15:46.760Z,17.08
2022-12-09T15:18:20.038Z,17.55
2022-12-09T15:20:58.528Z,16.92
2022-12-09T15:24:01.256Z,17.83
2022-12-09T15:26:32.782Z,17.73
2022-12-09T15:29:19.118Z,16.52
2022-12-09T15:31:54.889Z,18.70
2022-12-09T15:34:27.338Z,18.92
2022-12-09T15:37:18.155Z,19.25
2022-12-09T15:39:59.968Z,19.52
2022-12-09T15:42:29.602Z,18.88
2022-12-09T15:45:01.462Z,18.80
2022-12-09T15:47:58.677Z,18.77
2022-12-09T15:50:30.555Z,17.98
2022-12-09T15:53:25.328Z,17.88
2022-12-09T15:55:58.818Z,18.77
2022-12-09T15:58:34.219Z,19.40
2022-12-09T16:01:02.694Z,19.07
2022-12-09T16:03:33.207Z,19.92
2022-12-09T16:06:02.514Z,20.02
2022-12-09T16:08:35.364Z,20.10
2022-12-09T16:11:02.374Z,20.33
2022-12-09T16:13:30.225Z,21.52
2022-12-09T16:15:58.818Z,22.48
2022-12-09T16:18:31.182Z,20.83
2022-12-09T16:21:12.955Z,21.25
2022-12-09T16:23:39.920Z,20.55
2022-12-09T16:26:07.759Z,21.92
2022-12-09T16:28:35.051Z,22.70
2022-12-09T16:31:15.441Z,19.58
2022-12-09T16:33:48.030Z,21.15
2022-12-09T16:36:19.363Z,22.92
2022-12-09T16:39:06.900Z,22.48
2022-12-09T16:41:49.711Z,25.42
2022-12-09T16:44:33.805Z,21.80
2022-12-09T16:47:19.451Z,22.98
2022-12-09T16:49:47.719Z,23.05
2022-12-09T16:52:18.427Z,22.90
2022-12-09T16:54:47.096Z,23.75
2022-12-09T16:57:17.578Z,22.60
2022-12-09T16:59:45.536Z,23.55
2022-12-09T17:02:32.999Z,23.90
2022-12-09T17:05:00.632Z,23.42
2022-12-09T17:07:27.633Z,26.38
2022-12-09T17:09:54.395Z,26.23
2022-12-09T17:12:21.099Z,24.20
2022-12-09T17:14:47.916Z,24.20
2022-12-09T17:17:14.637Z,25.05
2022-12-09T17:19:42.357Z,24.02
2022-12-09T17:22:11.743Z,21.75
2022-12-09T17:24:39.845Z,20.95
2022-12-09T17:27:07.641Z,20.63
2022-12-09T17:29:34.291Z,21.63
2022-12-09T17:32:04.947Z,22.00
2022-12-09T17:34:46.337Z,21.70
2022-12-09T17:37:21.017Z,20.75
2022-12-09T17:40:11.035Z,22.60
2022-12-09T17:42:37.827Z,21.67
2022-12-09T17:45:18.898Z,21.60
2022-12-09T17:47:45.621Z,23.30
2022-12-09T17:50:22.563Z,20.30
2022-12-09T17:52:49.253Z,20.30
2022-12-09T17:55:16.043Z,21.50
2022-12-09T17:57:42.692Z,22.30
2022-12-09T18:00:10.958Z,21.83
2022-12-09T18:02:38.171Z,21.60
2022-12-09T18:05:05.577Z,21.42
2022-12-09T18:07:32.357Z,20.92
2022-12-09T18:09:59.014Z,21.88
2022-12-09T18:12:25.712Z,22.08
2022-12-09T18:14:52.445Z,21.33
2022-12-09T18:17:19.153Z,21.13
2022-12-09T18:19:45.916Z,23.15
2022-12-09T18:22:12.633Z,20.98
2022-12-09T18:24:39.297Z,22.63
2022-12-09T18:27:06.078Z,22.40
2022-12-09T18:29:32.970Z,21.35
2022-12-09T18:31:59.870Z,22.17
2022-12-09T18:34:28.300Z,21.95
2022-12-09T18:36:55.183Z,20.92
2022-12-09T18:39:22.304Z,20.85
2022-12-09T18:41:49.190Z,33.95
2022-12-09T18:44:16.195Z,20.05
2022-12-09T18:46:46.551Z,23.83
2022-12-09T18:49:16.560Z,19.27
2022-12-09T18:51:45.190Z,21.63
2022-12-09T18:54:18.178Z,18.80
2022-12-09T18:56:48.118Z,23.48
2022-12-09T18:59:14.759Z,19.33
2022-12-09T19:01:44.688Z,20.10
2022-12-09T19:04:14.881Z,18.50
2022-12-09T19:06:44.364Z,21.75
2022-12-09T19:09:18.495Z,20.65
2022-12-09T19:11:46.437Z,19.90
2022-12-09T19:14:14.556Z,20.17
2022-12-09T19:16:42.155Z,23.15
2022-12-09T19:19:11.046Z,22.33
2022-12-09T19:21:38.628Z,22.38
2022-12-09T19:24:05.887Z,20.48
2022-12-09T19:26:34.550Z,20.70
2022-12-09T19:29:04.942Z,92.35
2022-12-09T19:31:36.682Z,25.20
2022-12-09T19:34:13.141Z,20.75
2022-12-09T19:39:08.372Z,20.55
2022-12-09T19:41:35.891Z,20.45
2022-12-09T19:44:04.140Z,20.38
2022-12-09T19:46:31.346Z,20.35
2022-12-09T19:48:58.724Z,20.50
2022-12-09T19:51:27.111Z,19.15
2022-12-09T19:53:55.537Z,21.00
2022-12-09T19:56:22.603Z,20.55
2022-12-09T19:58:49.837Z,18.67
2022-12-09T20:01:25.037Z,20.75
2022-12-09T20:03:56.964Z,20.67
2022-12-09T20:06:24.351Z,19.65
2022-12-09T20:08:51.061Z,20.73
2022-12-09T20:11:20.704Z,21.52
2022-12-09T20:13:47.870Z,18.27
2022-12-09T20:16:18.252Z,19.58
2022-12-09T20:18:48.713Z,20.67
2022-12-09T20:21:17.774Z,20.88
2022-12-09T20:23:45.771Z,20.77
2022-12-09T20:26:15.639Z,21.73
2022-12-09T20:28:44.388Z,21.65
2022-12-09T20:31:14.179Z,20.73
2022-12-09T20:33:41.711Z,21.10
2022-12-09T20:36:12.874Z,20.13
2022-12-09T20:38:40.126Z,22.02
2022-12-09T20:41:10.014Z,21.95
2022-12-09T20:43:40.855Z,21.80
2022-12-09T20:46:11.865Z,21.77
2022-12-09T20:48:39.709Z,21.52
2022-12-09T20:51:08.718Z,21.58
2022-12-09T20:53:36.606Z,22.20
2022-12-09T20:56:04.549Z,21.02
2022-12-09T20:58:31.631Z,23.52
2022-12-09T21:01:05.553Z,22.25
2022-12-09T21:03:32.553Z,20.60
2022-12-09T21:05:59.521Z,20.75
2022-12-09T21:08:31.287Z,20.25
2022-12-09T21:11:07.488Z,21.25
2022-12-09T21:13:37.985Z,20.98
2022-12-09T21:16:07.800Z,20.15
2022-12-09T21:18:36.511Z,20.83
2022-12-09T21:21:04.761Z,20.58
2022-12-09T21:23:34.369Z,21.02
2022-12-09T21:26:05.582Z,20.13
2022-12-09T21:28:32.787Z,21.10
2022-12-09T21:31:05.744Z,20.48
2022-12-09T21:33:32.476Z,19.15
2022-12-09T21:35:59.168Z,19.55
2022-12-09T21:38:25.834Z,19.05
2022-12-09T21:40:52.651Z,18.42
2022-12-09T21:43:19.370Z,19.88
2022-12-09T21:45:46.072Z,19.67
2022-12-09T21:48:12.843Z,16.90
2022-12-09T21:50:40.110Z,20.42
2022-12-09T21:53:07.008Z,18.45
2022-12-09T21:55:35.941Z,18.83
2022-12-09T21:58:02.613Z,17.63
2022-12-09T22:00:29.769Z,18.52
2022-12-09T22:02:56.381Z,19.05
2022-12-09T22:05:23.028Z,18.10
2022-12-09T22:07:50.059Z,18.00
2022-12-09T22:10:16.823Z,18.15
2022-12-09T22:12:43.952Z,18.63
2022-12-09T22:15:11.052Z,17.75
2022-12-09T22:17:38.145Z,17.45
2022-12-09T22:20:48.876Z,17.65
2022-12-09T22:22:54.369Z,18.02
2022-12-09T22:25:21.056Z,17.55
2022-12-09T22:27:47.677Z,19.67
2022-12-09T22:30:14.416Z,18.02
2022-12-09T22:32:44.454Z,18.60
2022-12-09T22:35:14.618Z,19.58
2022-12-09T22:37:43.836Z,18.35
2022-12-09T22:40:11.372Z,17.83
2022-12-09T22:42:38.118Z,19.70
2022-12-09T22:45:14.843Z,18.65
2022-12-09T22:47:47.908Z,20.65
2022-12-09T22:50:14.611Z,18.35
2022-12-09T22:52:41.263Z,19.13
2022-12-09T22:55:12.752Z,18.65
2022-12-09T22:57:39.581Z,19.08
2022-12-09T23:00:20.280Z,17.90
2022-12-09T23:02:48.237Z,18.48
2022-12-09T23:05:15.431Z,18.17
2022-12-09T23:07:43.305Z,19.25
2022-12-09T23:10:17.391Z,19.27
2022-12-09T23:12:44.063Z,20.65
2022-12-09T23:15:11.015Z,19.50
2022-12-09T23:17:43.947Z,19.88
2022-12-09T23:20:17.287Z,19.67
2022-12-09T23:22:45.612Z,20.70
2022-12-09T23:25:12.267Z,22.40
2022-12-09T23:27:48.188Z,22.88
2022-12-09T23:30:14.824Z,21.65
2022-12-09T23:32:41.576Z,22.58
2022-12-09T23:35:18.093Z,24.27
2022-12-09T23:38:14.705Z,25.05
2022-12-09T23:40:50.451Z,23.00
2022-12-09T23:43:17.583Z,24.48
2022-12-09T23:45:45.848Z,25.27
2022-12-09T23:48:12.585Z,24.58
2022-12-09T23:50:44.781Z,25.73
2022-12-09T23:53:13.707Z,24.77
2022-12-09T23:55:42.980Z,25.17
2022-12-09T23:58:09.922Z,24.80
